createdAt,value
2018-05-04T00:01:19.747Z,18.00
2018-05-04T00:03:48.800Z,18.00
2018-05-04T00:06:17.079Z,18.00
2018-05-04T00:08:45.400Z,18.10
2018-05-04T00:11:14.454Z,18.20
2018-05-04T00:13:42.755Z,18.10
2018-05-04T00:16:11.804Z,18.30
2018-05-04T00:18:40.096Z,18.20
2018-05-04T00:21:08.414Z,18.20
2018-05-04T00:23:37.482Z,17.90
2018-05-04T00:26:06.526Z,17.90
2018-05-04T00:28:34.810Z,17.80
2018-05-04T00:31:03.091Z,17.80
2018-05-04T00:33:31.379Z,17.70
2018-05-04T00:35:59.671Z,17.70
2018-05-04T00:38:27.975Z,17.70
2018-05-04T00:40:57.050Z,17.70
2018-05-04T00:43:25.331Z,17.70
2018-05-04T00:45:54.376Z,17.60
2018-05-04T00:48:22.791Z,17.50
2018-05-04T00:50:51.103Z,17.40
2018-05-04T00:53:19.455Z,17.20
2018-05-04T00:55:48.518Z,16.90
2018-05-04T00:58:16.786Z,16.90
2018-05-04T01:00:45.085Z,16.90
2018-05-04T01:03:13.379Z,16.90
2018-05-04T01:05:42.108Z,16.90
2018-05-04T01:08:10.440Z,16.90
2018-05-04T01:10:39.467Z,17.00
2018-05-04T01:13:07.758Z,17.00
2018-05-04T01:15:36.038Z,17.10
2018-05-04T01:18:04.343Z,17.00
2018-05-04T01:20:32.628Z,17.10
2018-05-04T01:23:01.708Z,16.80
2018-05-04T01:25:29.994Z,16.80
2018-05-04T01:27:58.301Z,16.80
2018-05-04T01:30:26.611Z,16.80
2018-05-04T01:32:54.907Z,16.70
2018-05-04T01:35:23.205Z,16.70
2018-05-04T01:37:52.484Z,16.70
2018-05-04T01:40:21.545Z,16.50
2018-05-04T01:42:49.975Z,16.50
2018-05-04T01:45:19.020Z,16.40
2018-05-04T01:47:47.321Z,16.40
2018-05-04T01:50:15.595Z,16.30
2018-05-04T01:52:44.450Z,16.30
2018-05-04T01:55:12.773Z,16.30
2018-05-04T01:57:41.070Z,16.20
2018-05-04T02:00:10.119Z,16.10
2018-05-04T02:02:38.411Z,16.00
2018-05-04T02:05:06.692Z,15.90
2018-05-04T02:07:35.756Z,15.80
2018-05-04T02:10:04.056Z,15.80
2018-05-04T02:12:33.887Z,15.60
2018-05-04T02:15:02.931Z,15.30
2018-05-04T02:17:31.210Z,15.30
2018-05-04T02:19:59.524Z,15.10
2018-05-04T02:22:28.595Z,14.90
2018-05-04T02:24:56.881Z,14.90
2018-05-04T02:27:25.939Z,14.80
2018-05-04T02:29:54.223Z,14.80
2018-05-04T02:32:22.528Z,14.80
2018-05-04T02:34:50.821Z,14.70
2018-05-04T02:37:20.039Z,14.30
2018-05-04T02:39:48.314Z,14.30
2018-05-04T02:42:16.606Z,14.20
2018-05-04T02:44:44.891Z,14.00
2018-05-04T02:47:13.191Z,14.00
2018-05-04T02:49:41.552Z,14.00
2018-05-04T02:52:09.826Z,14.00
2018-05-04T02:54:38.117Z,14.10
2018-05-04T02:57:06.398Z,14.20
2018-05-04T02:59:34.689Z,14.30
2018-05-04T03:02:03.747Z,14.60
2018-05-04T03:04:32.044Z,14.60
2018-05-04T03:07:01.091Z,14.20
2018-05-04T03:09:29.496Z,14.10
2018-05-04T03:11:57.771Z,14.10
2018-05-04T03:14:26.087Z,13.90
2018-05-04T03:16:55.136Z,13.80
2018-05-04T03:19:23.410Z,13.80
2018-05-04T03:21:52.046Z,13.80
2018-05-04T03:24:20.282Z,13.80
2018-05-04T03:26:48.707Z,13.70
2018-05-04T03:29:17.013Z,13.60
2018-05-04T03:31:45.307Z,13.70
2018-05-04T03:34:13.595Z,13.80
2018-05-04T03:36:41.917Z,13.90
2018-05-04T03:39:10.238Z,14.00
2018-05-04T03:41:38.528Z,14.00
2018-05-04T03:44:07.617Z,13.90
2018-05-04T03:46:36.669Z,13.70
2018-05-04T03:49:04.965Z,13.70
2018-05-04T03:51:34.034Z,13.70
2018-05-04T03:54:03.090Z,13.80
2018-05-04T03:56:37.234Z,13.80
2018-05-04T03:59:23.322Z,14.00
2018-05-04T04:02:09.428Z,14.10
2018-05-04T04:04:43.593Z,14.20
2018-05-04T04:07:17.760Z,14.40
2018-05-04T04:09:52.023Z,14.40
2018-05-04T04:12:26.189Z,14.10
2018-05-04T04:15:00.362Z,14.00
2018-05-04T04:17:34.562Z,14.10
2018-05-04T04:20:08.835Z,14.10
2018-05-04T04:22:43.208Z,13.90
2018-05-04T04:25:17.403Z,13.80
2018-05-04T04:27:52.687Z,14.00
2018-05-04T04:30:26.838Z,13.90
2018-05-04T04:33:01.014Z,14.00
2018-05-04T04:35:36.079Z,14.20
2018-05-04T04:38:10.275Z,14.20
2018-05-04T04:40:44.475Z,14.20
2018-05-04T04:43:18.626Z,14.20
2018-05-04T04:45:52.796Z,14.30
2018-05-04T04:48:26.987Z,14.30
2018-05-04T04:50:56.326Z,14.30
2018-05-04T04:53:24.627Z,14.40
2018-05-04T04:55:52.919Z,14.40
2018-05-04T04:58:21.220Z,14.40
2018-05-04T05:00:49.534Z,14.40
2018-05-04T05:03:17.835Z,14.40
2018-05-04T05:05:46.127Z,14.50
2018-05-04T05:08:14.431Z,14.50
2018-05-04T05:10:43.491Z,14.60
2018-05-04T05:13:11.777Z,14.60
2018-05-04T05:15:40.075Z,14.60
2018-05-04T05:18:08.371Z,14.60
2018-05-04T05:20:36.694Z,14.50
2018-05-04T05:23:04.983Z,14.60
2018-05-04T05:25:33.278Z,14.60
2018-05-04T05:28:01.614Z,14.60
2018-05-04T05:30:29.888Z,14.60
2018-05-04T05:32:58.200Z,14.70
2018-05-04T05:35:30.411Z,14.70
2018-05-04T05:38:19.105Z,14.70
2018-05-04T05:40:47.420Z,14.70
2018-05-04T05:43:16.524Z,14.80
2018-05-04T05:45:44.827Z,14.80
2018-05-04T05:48:13.897Z,15.00
2018-05-04T05:50:42.212Z,14.90
2018-05-04T05:53:10.545Z,15.00
2018-05-04T05:55:38.861Z,15.10
2018-05-04T05:58:07.218Z,15.20
2018-05-04T06:00:35.595Z,15.20
2018-05-04T06:03:03.887Z,15.30
2018-05-04T06:05:32.230Z,15.40
2018-05-04T06:08:01.340Z,15.40
2018-05-04T06:10:29.698Z,15.40
2018-05-04T06:12:58.020Z,15.40
2018-05-04T06:15:27.146Z,15.50
2018-05-04T06:17:55.455Z,15.50
2018-05-04T06:20:23.792Z,15.60
2018-05-04T06:22:58.966Z,15.60
2018-05-04T06:25:28.058Z,15.70
2018-05-04T06:27:56.423Z,15.70
2018-05-04T06:30:24.827Z,15.70
2018-05-04T06:32:53.248Z,15.80
2018-05-04T06:35:21.567Z,15.90
2018-05-04T06:37:50.682Z,16.10
2018-05-04T06:40:19.003Z,16.00
2018-05-04T06:42:47.376Z,16.20
2018-05-04T06:45:16.437Z,16.30
2018-05-04T06:47:44.798Z,16.30
2018-05-04T06:50:13.153Z,16.30
2018-05-04T06:52:41.521Z,16.60
2018-05-04T06:55:09.860Z,16.80
2018-05-04T06:57:38.974Z,17.00
2018-05-04T07:00:09.310Z,17.00
2018-05-04T07:02:39.636Z,17.20
2018-05-04T07:05:17.986Z,17.30
2018-05-04T07:07:46.344Z,17.40
2018-05-04T07:10:14.676Z,17.60
2018-05-04T07:12:43.029Z,17.80
2018-05-04T07:15:11.382Z,17.90
2018-05-04T07:17:39.719Z,18.00
2018-05-04T07:20:08.091Z,18.10
2018-05-04T07:22:36.422Z,18.30
2018-05-04T07:25:14.751Z,18.50
2018-05-04T07:27:43.088Z,18.50
2018-05-04T07:30:11.419Z,18.50
2018-05-04T07:32:39.802Z,18.60
2018-05-04T07:35:08.138Z,18.70
2018-05-04T07:37:37.283Z,18.80
2018-05-04T07:40:05.664Z,18.80
2018-05-04T07:42:34.001Z,18.80
2018-05-04T07:45:02.344Z,19.00
2018-05-04T07:47:30.762Z,19.10
2018-05-04T07:49:59.164Z,19.30
2018-05-04T07:52:27.485Z,19.40
2018-05-04T07:54:55.832Z,19.50
2018-05-04T07:57:24.971Z,19.70
2018-05-04T07:59:53.369Z,19.70
2018-05-04T08:02:22.450Z,19.90
2018-05-04T08:04:50.795Z,19.90
2018-05-04T08:07:19.125Z,20.00
2018-05-04T08:09:48.008Z,20.10
2018-05-04T08:12:16.347Z,20.30
2018-05-04T08:14:44.737Z,20.50
2018-05-04T08:17:13.847Z,20.60
2018-05-04T08:19:42.947Z,20.50
2018-05-04T08:22:11.309Z,20.40
2018-05-04T08:24:40.655Z,20.50
2018-05-04T08:27:08.974Z,20.50
2018-05-04T08:29:37.287Z,20.60
2018-05-04T08:32:05.667Z,20.80
2018-05-04T08:34:34.027Z,20.90
2018-05-04T08:37:02.354Z,20.90
2018-05-04T08:39:31.439Z,21.10
2018-05-04T08:41:59.819Z,21.10
2018-05-04T08:44:28.143Z,21.10
2018-05-04T08:46:56.518Z,21.20
2018-05-04T08:49:24.842Z,21.30
2018-05-04T08:51:53.244Z,21.40
2018-05-04T08:54:21.640Z,21.50
2018-05-04T08:56:49.977Z,21.60
2018-05-04T08:59:18.332Z,21.50
2018-05-04T09:01:46.733Z,21.60
2018-05-04T09:04:15.142Z,21.70
2018-05-04T09:06:43.572Z,21.60
2018-05-04T09:09:11.938Z,21.60
2018-05-04T09:11:40.343Z,21.60
2018-05-04T09:14:08.695Z,21.60
2018-05-04T09:16:37.861Z,21.70
2018-05-04T09:19:06.230Z,21.60
2018-05-04T09:21:34.548Z,21.70
2018-05-04T09:24:03.846Z,21.60
2018-05-04T09:26:32.151Z,21.60
2018-05-04T09:29:00.499Z,21.60
2018-05-04T09:31:29.626Z,21.80
2018-05-04T09:33:57.974Z,21.80
2018-05-04T09:36:26.300Z,21.90
2018-05-04T09:38:55.508Z,21.90
2018-05-04T09:41:23.848Z,21.90
2018-05-04T09:43:52.239Z,22.00
2018-05-04T09:46:20.548Z,22.10
2018-05-04T09:48:48.867Z,22.00
2018-05-04T09:51:17.257Z,22.00
2018-05-04T09:53:45.568Z,22.10
2018-05-04T09:56:13.905Z,22.20
2018-05-04T09:58:42.206Z,22.50
2018-05-04T10:01:10.535Z,22.60
2018-05-04T10:03:38.969Z,22.80
2018-05-04T10:06:07.200Z,23.00
2018-05-04T10:08:35.506Z,23.30
2018-05-04T10:11:03.883Z,23.50
2018-05-04T10:13:32.202Z,23.60
2018-05-04T10:16:00.593Z,23.70
2018-05-04T10:18:28.897Z,23.80
2018-05-04T10:20:57.304Z,23.80
2018-05-04T10:23:26.607Z,23.90
2018-05-04T10:25:54.938Z,24.00
2018-05-04T10:28:24.031Z,24.30
2018-05-04T10:30:52.486Z,24.30
2018-05-04T10:33:20.739Z,24.50
2018-05-04T10:35:49.837Z,24.50
2018-05-04T10:38:18.175Z,24.50
2018-05-04T10:40:47.247Z,24.70
2018-05-04T10:43:16.320Z,24.70
2018-05-04T10:45:44.626Z,24.70
2018-05-04T10:48:12.968Z,24.80
2018-05-04T10:50:41.308Z,24.80
2018-05-04T10:53:09.649Z,24.70
2018-05-04T10:55:38.765Z,24.70
2018-05-04T10:58:07.099Z,24.70
2018-05-04T11:00:36.213Z,24.80
2018-05-04T11:03:04.526Z,24.80
2018-05-04T11:05:32.895Z,25.00
2018-05-04T11:08:01.208Z,25.10
2018-05-04T11:10:29.522Z,25.20
2018-05-04T11:12:58.643Z,25.30
2018-05-04T11:15:27.734Z,25.40
2018-05-04T11:17:56.126Z,25.40
2018-05-04T11:20:24.425Z,25.60
2018-05-04T11:22:52.738Z,25.70
2018-05-04T11:25:22.072Z,25.60
2018-05-04T11:27:50.345Z,25.70
2018-05-04T11:30:18.677Z,25.70
2018-05-04T11:32:47.107Z,25.80
2018-05-04T11:35:15.491Z,25.80
2018-05-04T11:37:43.904Z,25.90
2018-05-04T11:40:12.200Z,26.00
2018-05-04T11:42:40.531Z,26.10
2018-05-04T11:45:09.623Z,26.30
2018-05-04T11:47:37.980Z,26.30
2018-05-04T11:50:06.296Z,26.40
2018-05-04T11:52:34.636Z,26.40
2018-05-04T11:55:03.047Z,26.40
2018-05-04T11:57:31.377Z,26.50
2018-05-04T11:59:59.667Z,26.50
2018-05-04T12:02:27.995Z,26.50
2018-05-04T12:04:56.455Z,26.60
2018-05-04T12:07:24.735Z,26.50
2018-05-04T12:09:53.844Z,26.60
2018-05-04T12:12:22.159Z,26.50
2018-05-04T12:14:50.449Z,26.70
2018-05-04T12:17:18.843Z,26.80
2018-05-04T12:19:47.180Z,26.80
2018-05-04T12:22:16.293Z,26.90
2018-05-04T12:24:44.604Z,26.90
2018-05-04T12:27:13.704Z,27.00
2018-05-04T12:29:42.828Z,27.00
2018-05-04T12:32:11.158Z,27.00
2018-05-04T12:34:39.484Z,27.10
2018-05-04T12:37:07.839Z,27.00
2018-05-04T12:39:36.164Z,27.00
2018-05-04T12:42:04.556Z,26.90
2018-05-04T12:44:32.872Z,27.00
2018-05-04T12:47:01.309Z,26.90
2018-05-04T12:49:29.576Z,26.70
2018-05-04T12:51:58.673Z,26.50
2018-05-04T12:54:26.991Z,26.40
2018-05-04T12:56:56.093Z,26.60
2018-05-04T12:59:25.242Z,26.60
2018-05-04T13:01:53.563Z,26.60
2018-05-04T13:04:22.024Z,26.70
2018-05-04T13:06:51.277Z,27.00
2018-05-04T13:09:20.585Z,27.00
2018-05-04T13:11:49.040Z,26.90
2018-05-04T13:14:19.490Z,26.70
2018-05-04T13:16:47.868Z,26.70
2018-05-04T13:19:24.070Z,26.80
2018-05-04T13:21:54.272Z,27.00
2018-05-04T13:42:23.481Z,27.30
2018-05-04T13:44:51.857Z,27.60
2018-05-04T13:47:26.285Z,27.70
2018-05-04T13:50:01.846Z,27.80
2018-05-04T13:52:36.137Z,27.80
2018-05-04T13:55:14.160Z,27.70
2018-05-04T13:57:50.202Z,27.70
2018-05-04T14:00:24.491Z,27.70
2018-05-04T14:02:57.899Z,27.80
2018-05-04T14:05:26.230Z,27.60
2018-05-04T14:07:54.575Z,27.50
2018-05-04T14:10:22.909Z,27.40
2018-05-04T14:12:51.374Z,27.30
2018-05-04T14:15:19.539Z,27.20
2018-05-04T14:17:48.765Z,27.10
2018-05-04T14:20:17.098Z,27.10
2018-05-04T14:22:45.478Z,27.00
2018-05-04T14:28:16.951Z,26.90
2018-05-04T14:30:45.633Z,27.00
2018-05-04T14:33:14.722Z,26.90
2018-05-04T14:35:43.097Z,26.90
2018-05-04T14:38:11.537Z,26.90
2018-05-04T14:40:40.668Z,26.70
2018-05-04T14:43:09.061Z,26.70
2018-05-04T14:45:37.512Z,26.60
2018-05-04T14:48:05.819Z,26.50
2018-05-04T14:50:34.219Z,26.50
2018-05-04T14:53:03.361Z,26.50
2018-05-04T14:55:31.699Z,26.40
2018-05-04T14:58:00.059Z,26.40
2018-05-04T15:00:28.417Z,26.40
2018-05-04T15:02:56.792Z,26.40
2018-05-04T15:05:25.123Z,26.40
2018-05-04T15:07:53.521Z,26.30
2018-05-04T15:10:22.663Z,26.40
2018-05-04T15:12:51.008Z,26.30
2018-05-04T15:15:19.409Z,26.40
2018-05-04T15:17:48.063Z,26.40
2018-05-04T15:20:20.494Z,26.30
2018-05-04T15:25:43.156Z,26.10
2018-05-04T15:28:11.665Z,26.20
2018-05-04T15:33:51.130Z,26.10
2018-05-04T15:36:19.550Z,26.10
2018-05-04T15:38:48.745Z,26.10
2018-05-04T15:41:23.765Z,26.10
2018-05-04T15:43:58.249Z,26.10
2018-05-04T15:46:39.416Z,26.20
2018-05-04T15:49:20.524Z,26.10
2018-05-04T15:52:02.500Z,26.00
2018-05-04T16:06:59.135Z,25.70
2018-05-04T16:09:27.531Z,25.60
2018-05-04T16:11:55.877Z,25.60
2018-05-04T16:14:25.078Z,25.40
2018-05-04T16:16:53.473Z,25.40
2018-05-04T16:19:21.864Z,25.40
2018-05-04T16:21:50.275Z,25.30
2018-05-04T16:42:19.660Z,25.20
2018-05-04T16:44:48.041Z,25.30
2018-05-04T16:47:22.068Z,25.30
2018-05-04T16:49:50.483Z,25.30
2018-05-04T16:52:18.876Z,25.20
2018-05-04T16:54:48.049Z,25.20
2018-05-04T16:57:16.445Z,25.20
2018-05-04T16:59:45.610Z,25.20
2018-05-04T17:02:13.988Z,25.20
2018-05-04T17:04:42.395Z,25.20
2018-05-04T17:07:10.832Z,25.20
2018-05-04T17:09:39.674Z,25.10
2018-05-04T17:12:07.995Z,25.10
2018-05-04T17:14:36.370Z,25.10
2018-05-04T17:17:04.721Z,25.10
2018-05-04T17:19:33.109Z,25.10
2018-05-04T17:22:01.696Z,25.10
2018-05-04T17:42:30.540Z,24.70
2018-05-04T17:44:58.968Z,24.60
2018-05-04T17:47:27.466Z,24.60
2018-05-04T17:49:55.816Z,24.50
2018-05-04T17:52:24.209Z,24.50
2018-05-04T17:54:52.531Z,24.40
2018-05-04T17:57:20.939Z,24.50
2018-05-04T17:59:49.314Z,24.40
2018-05-04T18:02:17.693Z,24.40
2018-05-04T18:04:46.856Z,24.30
2018-05-04T18:07:15.209Z,24.30
2018-05-04T18:09:43.872Z,24.20
2018-05-04T18:12:12.250Z,24.30
2018-05-04T18:14:40.670Z,24.10
2018-05-04T18:17:09.105Z,24.10
2018-05-04T18:19:37.493Z,24.00
2018-05-04T18:22:05.875Z,23.90
2018-05-04T18:42:35.575Z,23.80
2018-05-04T18:45:03.918Z,23.80
2018-05-04T18:47:33.054Z,23.70
2018-05-04T18:50:01.368Z,23.70
2018-05-04T18:52:29.761Z,23.70
2018-05-04T18:54:58.179Z,23.70
2018-05-04T18:57:26.598Z,23.70
2018-05-04T18:59:55.829Z,23.50
2018-05-04T19:02:44.597Z,23.40
2018-05-04T19:08:25.067Z,23.20
2018-05-04T19:10:54.280Z,23.30
2018-05-04T19:13:22.699Z,23.30
2018-05-04T19:15:51.822Z,23.20
2018-05-04T19:18:20.330Z,23.20
2018-05-04T19:20:48.817Z,23.20
2018-05-04T19:41:17.373Z,22.90
2018-05-04T19:43:45.795Z,22.80
2018-05-04T19:46:14.204Z,22.80
2018-05-04T19:48:44.725Z,22.80
2018-05-04T19:51:14.054Z,22.50
2018-05-04T19:53:45.810Z,22.70
2018-05-04T19:56:15.097Z,22.60
2018-05-04T19:58:43.627Z,22.60
2018-05-04T20:01:11.948Z,22.60
2018-05-04T20:03:41.232Z,22.50
2018-05-04T20:06:11.477Z,22.50
2018-05-04T20:08:50.837Z,22.40
2018-05-04T20:11:19.244Z,22.30
2018-05-04T20:13:48.398Z,22.40
2018-05-04T20:16:17.553Z,22.30
2018-05-04T20:18:46.571Z,22.30
2018-05-04T20:21:15.838Z,22.30
2018-05-04T20:26:46.867Z,22.20
2018-05-04T20:29:16.423Z,22.00
2018-05-04T21:11:19.402Z,21.10
2018-05-04T21:13:47.753Z,21.00
2018-05-04T21:16:16.131Z,21.00
2018-05-04T21:18:44.511Z,20.90
2018-05-04T21:21:12.913Z,20.90
2018-05-04T21:41:44.337Z,20.60
2018-05-04T21:44:12.752Z,20.60
2018-05-04T21:46:41.092Z,20.60
2018-05-04T21:49:10.315Z,20.60
2018-05-04T21:51:38.648Z,20.50
2018-05-04T21:54:07.001Z,20.50
2018-05-04T21:56:35.383Z,20.50
2018-05-04T21:59:04.570Z,20.50
2018-05-04T22:01:32.907Z,20.50
2018-05-04T22:04:01.263Z,20.50
2018-05-04T22:06:29.628Z,20.40
2018-05-04T22:08:57.989Z,20.40
2018-05-04T22:11:27.121Z,20.40
2018-05-04T22:13:55.499Z,20.40
2018-05-04T22:16:24.625Z,20.40
2018-05-04T22:18:53.008Z,20.30
2018-05-04T22:21:22.137Z,20.20
2018-05-04T22:41:51.023Z,19.90
2018-05-04T22:44:19.384Z,19.90
2018-05-04T22:46:47.735Z,19.80
2018-05-04T22:49:16.058Z,19.80
2018-05-04T22:51:45.369Z,19.80
2018-05-04T22:54:14.507Z,19.80
2018-05-04T22:56:42.876Z,19.80
2018-05-04T22:59:11.235Z,19.70
2018-05-04T23:01:40.348Z,19.60
2018-05-04T23:04:09.540Z,19.60
2018-05-04T23:06:37.920Z,19.60
2018-05-04T23:09:06.361Z,19.50
2018-05-04T23:11:35.519Z,19.50
2018-05-04T23:14:03.875Z,19.50
2018-05-04T23:16:32.996Z,19.30
2018-05-04T23:19:01.368Z,19.30
2018-05-04T23:21:30.455Z,19.20
